createdAt,value
2023-01-17T00:00:33.051Z,79.43
2023-01-17T00:03:36.100Z,79.42
2023-01-17T00:06:29.846Z,79.56
2023-01-17T00:09:56.241Z,79.53
2023-01-17T00:12:43.222Z,79.50
2023-01-17T00:15:33.043Z,79.52
2023-01-17T00:18:08.276Z,79.44
2023-01-17T00:21:15.138Z,79.27
2023-01-17T00:24:09.112Z,79.27
2023-01-17T00:27:15.020Z,79.14
2023-01-17T00:29:49.091Z,79.08
2023-01-17T00:32:37.036Z,79.11
2023-01-17T00:35:12.104Z,79.02
2023-01-17T00:38:18.024Z,79.17
2023-01-17T00:41:00.102Z,79.26
2023-01-17T00:43:59.989Z,79.14
2023-01-17T00:47:13.017Z,79.14
2023-01-17T00:50:20.019Z,79.33
2023-01-17T00:53:13.940Z,79.37
2023-01-17T00:56:20.033Z,79.35
2023-01-17T00:59:14.072Z,79.35
2023-01-17T01:02:21.270Z,79.30
2023-01-17T01:05:17.394Z,79.43
2023-01-17T01:08:24.167Z,79.46
2023-01-17T01:11:18.115Z,79.68
2023-01-17T01:14:27.214Z,79.77
2023-01-17T01:17:33.220Z,79.96
2023-01-17T01:20:27.809Z,79.85
2023-01-17T01:23:38.194Z,79.66
2023-01-17T01:26:40.006Z,79.58
2023-01-17T01:29:41.127Z,79.64
2023-01-17T01:32:42.143Z,79.54
2023-01-17T01:35:30.219Z,79.34
2023-01-17T01:38:05.460Z,79.33
2023-01-17T01:41:03.015Z,79.44
2023-01-17T01:43:55.991Z,79.18
2023-01-17T01:46:54.007Z,79.07
2023-01-17T01:49:42.001Z,79.00
2023-01-17T01:52:18.123Z,78.74
2023-01-17T01:55:10.012Z,78.69
2023-01-17T01:57:55.619Z,78.64
2023-01-17T02:00:45.060Z,78.68
2023-01-17T02:03:42.048Z,78.86
2023-01-17T02:06:48.019Z,78.83
2023-01-17T02:09:24.126Z,78.93
2023-01-17T02:12:12.981Z,79.03
2023-01-17T02:15:02.284Z,79.09
2023-01-17T02:18:07.890Z,79.22
2023-01-17T02:21:08.004Z,79.30
2023-01-17T02:23:45.435Z,79.36
2023-01-17T02:26:50.998Z,79.43
2023-01-17T02:29:56.995Z,79.55
2023-01-17T02:32:51.138Z,79.53
2023-01-17T02:35:47.023Z,79.63
2023-01-17T02:38:52.143Z,79.90
2023-01-17T02:41:43.008Z,80.09
2023-01-17T02:44:30.127Z,80.31
2023-01-17T02:47:43.007Z,80.33
2023-01-17T02:50:44.979Z,80.54
2023-01-17T02:54:01.210Z,80.54
2023-01-17T02:56:51.297Z,80.44
2023-01-17T03:00:02.003Z,80.68
2023-01-17T03:03:05.062Z,80.67
2023-01-17T03:06:09.004Z,80.74
2023-01-17T03:08:58.133Z,80.90
2023-01-17T03:11:39.999Z,80.85
2023-01-17T03:14:21.513Z,80.91
2023-01-17T03:17:10.172Z,80.90
2023-01-17T03:20:05.173Z,80.65
2023-01-17T03:22:52.978Z,80.58
2023-01-17T03:25:27.574Z,80.51
2023-01-17T03:28:14.978Z,80.70
2023-01-17T03:30:57.067Z,80.87
2023-01-17T03:33:53.185Z,80.89
2023-01-17T03:36:41.834Z,80.84
2023-01-17T03:39:23.119Z,81.01
2023-01-17T03:42:05.110Z,81.12
2023-01-17T03:44:46.289Z,81.33
2023-01-17T03:47:28.082Z,81.39
2023-01-17T03:50:12.124Z,81.44
2023-01-17T03:52:52.993Z,81.44
2023-01-17T03:55:40.971Z,81.40
2023-01-17T03:58:16.686Z,81.56
2023-01-17T04:01:06.283Z,81.55
2023-01-17T04:03:42.612Z,81.58
2023-01-17T04:06:31.079Z,81.55
2023-01-17T04:09:12.960Z,81.53
2023-01-17T04:11:54.251Z,81.63
2023-01-17T04:14:35.985Z,81.63
2023-01-17T04:17:19.268Z,81.54
2023-01-17T04:20:01.158Z,81.47
2023-01-17T04:22:43.261Z,81.65
2023-01-17T04:25:24.983Z,81.71
2023-01-17T04:28:14.970Z,81.79
2023-01-17T04:30:49.615Z,81.81
2023-01-17T04:33:37.984Z,81.69
2023-01-17T04:36:26.153Z,81.75
2023-01-17T04:39:08.148Z,81.72
2023-01-17T04:42:03.161Z,81.85
2023-01-17T04:44:51.178Z,82.02
2023-01-17T04:47:26.233Z,81.87
2023-01-17T04:50:14.975Z,81.85
2023-01-17T04:52:57.170Z,81.81
2023-01-17T04:55:51.984Z,81.81
2023-01-17T04:58:39.963Z,82.15
2023-01-17T05:01:23.056Z,82.48
2023-01-17T05:04:10.981Z,82.58
2023-01-17T05:06:46.219Z,82.63
2023-01-17T05:09:34.158Z,82.43
2023-01-17T05:12:09.183Z,82.27
2023-01-17T05:14:57.119Z,82.26
2023-01-17T05:17:39.124Z,82.24
2023-01-17T05:20:35.939Z,82.03
2023-01-17T05:23:24.154Z,81.97
2023-01-17T05:25:59.240Z,82.06
2023-01-17T05:28:46.973Z,81.96
2023-01-17T05:31:22.269Z,81.92
2023-01-17T05:34:10.969Z,82.10
2023-01-17T05:36:46.205Z,81.95
2023-01-17T05:39:34.142Z,81.72
2023-01-17T05:42:16.139Z,81.52
2023-01-17T05:45:11.153Z,81.95
2023-01-17T05:48:07.989Z,81.92
2023-01-17T05:51:03.092Z,81.91
2023-01-17T05:53:51.168Z,81.59
2023-01-17T05:56:26.121Z,81.76
2023-01-17T05:59:14.324Z,81.80
2023-01-17T06:01:50.260Z,81.87
2023-01-17T06:04:39.991Z,81.83
2023-01-17T06:07:15.181Z,81.90
2023-01-17T06:10:03.008Z,81.37
2023-01-17T06:12:38.078Z,81.33
2023-01-17T06:15:25.951Z,81.21
2023-01-17T06:18:01.062Z,81.00
2023-01-17T06:20:48.950Z,80.74
2023-01-17T06:23:24.070Z,80.44
2023-01-17T06:26:12.948Z,80.56
2023-01-17T06:28:54.932Z,80.64
2023-01-17T06:31:49.947Z,80.73
2023-01-17T06:34:37.986Z,80.65
2023-01-17T06:37:13.082Z,80.49
2023-01-17T06:40:00.952Z,80.26
2023-01-17T06:42:36.068Z,80.25
2023-01-17T06:45:24.931Z,80.10
2023-01-17T06:48:06.025Z,79.91
2023-01-17T06:51:01.029Z,79.83
2023-01-17T06:53:48.963Z,79.71
2023-01-17T06:56:24.102Z,79.52
2023-01-17T06:59:11.968Z,79.56
2023-01-17T07:01:47.237Z,79.52
2023-01-17T07:04:35.012Z,79.47
2023-01-17T07:07:10.143Z,79.37
2023-01-17T07:09:57.978Z,79.47
2023-01-17T07:12:39.972Z,79.29
2023-01-17T07:15:34.979Z,79.18
2023-01-17T07:18:27.013Z,78.97
2023-01-17T07:21:08.241Z,78.78
2023-01-17T07:23:49.910Z,78.75
2023-01-17T07:26:31.057Z,78.87
2023-01-17T07:29:11.927Z,78.82
2023-01-17T07:32:02.923Z,78.41
2023-01-17T07:34:43.920Z,78.21
2023-01-17T07:37:32.972Z,77.96
2023-01-17T07:40:07.909Z,78.42
2023-01-17T07:42:55.941Z,78.86
2023-01-17T07:45:30.462Z,78.71
2023-01-17T07:48:17.990Z,78.26
2023-01-17T07:51:04.932Z,78.31
2023-01-17T07:53:46.092Z,78.50
2023-01-17T07:56:27.975Z,78.16
2023-01-17T07:59:09.057Z,78.40
2023-01-17T08:01:50.200Z,79.12
2023-01-17T08:04:35.481Z,79.17
2023-01-17T08:07:16.989Z,79.01
2023-01-17T08:09:58.084Z,78.89
2023-01-17T08:12:38.989Z,78.68
2023-01-17T08:15:21.103Z,78.55
2023-01-17T08:18:04.927Z,78.22
2023-01-17T08:20:52.930Z,77.99
2023-01-17T08:23:27.436Z,77.84
2023-01-17T08:26:14.964Z,77.71
2023-01-17T08:28:57.080Z,77.67
2023-01-17T08:31:46.925Z,77.46
2023-01-17T08:34:22.127Z,77.49
2023-01-17T08:37:09.920Z,77.46
2023-01-17T08:39:50.914Z,77.40
2023-01-17T08:42:37.437Z,77.36
2023-01-17T08:45:20.016Z,77.31
2023-01-17T08:48:14.915Z,77.12
2023-01-17T08:51:06.924Z,76.96
2023-01-17T08:53:42.624Z,77.12
2023-01-17T08:56:32.943Z,76.31
2023-01-17T08:59:08.091Z,75.46
2023-01-17T09:01:56.033Z,75.36
2023-01-17T09:04:38.286Z,74.92
2023-01-17T09:07:34.934Z,74.69
2023-01-17T09:10:23.921Z,74.70
2023-01-17T09:12:58.047Z,75.21
2023-01-17T09:15:46.003Z,75.59
2023-01-17T09:18:28.928Z,75.67
2023-01-17T09:21:33.903Z,75.86
2023-01-17T09:24:28.916Z,75.73
2023-01-17T09:27:16.899Z,75.27
2023-01-17T09:29:58.909Z,74.98
2023-01-17T09:32:54.011Z,75.01
2023-01-17T09:35:41.940Z,74.93
2023-01-17T09:38:23.924Z,74.70
2023-01-17T09:41:26.900Z,74.56
2023-01-17T09:44:07.030Z,74.59
2023-01-17T09:47:07.664Z,74.16
2023-01-17T09:50:02.925Z,73.95
2023-01-17T09:52:50.858Z,73.63
2023-01-17T09:55:26.079Z,73.60
2023-01-17T09:58:18.907Z,73.45
2023-01-17T10:01:03.921Z,72.87
2023-01-17T10:04:23.014Z,72.30
2023-01-17T10:07:29.038Z,72.28
2023-01-17T10:10:27.017Z,72.55
2023-01-17T10:13:11.979Z,72.42
2023-01-17T10:16:28.006Z,71.97
2023-01-17T10:19:37.929Z,71.64
2023-01-17T10:22:44.034Z,71.39
2023-01-17T10:25:29.020Z,70.77
2023-01-17T10:28:20.920Z,70.71
2023-01-17T10:31:09.018Z,70.38
2023-01-17T10:34:00.912Z,69.59
2023-01-17T10:36:49.898Z,69.44
2023-01-17T10:39:37.874Z,69.15
2023-01-17T10:42:57.941Z,69.23
2023-01-17T10:46:03.051Z,68.94
2023-01-17T10:48:59.927Z,68.89
2023-01-17T10:51:56.886Z,69.12
2023-01-17T10:55:03.962Z,69.04
2023-01-17T10:57:54.255Z,68.88
2023-01-17T11:00:36.046Z,68.62
2023-01-17T11:03:27.909Z,68.32
2023-01-17T11:06:27.871Z,68.26
2023-01-17T11:09:18.881Z,68.28
2023-01-17T11:11:57.022Z,68.13
2023-01-17T11:15:09.183Z,68.46
2023-01-17T11:18:15.424Z,68.39
2023-01-17T11:20:51.409Z,68.17
2023-01-17T11:23:46.885Z,68.01
2023-01-17T11:26:34.985Z,67.96
2023-01-17T11:29:43.111Z,67.86
2023-01-17T11:32:27.893Z,67.58
2023-01-17T11:35:17.030Z,67.65
2023-01-17T11:37:58.917Z,67.91
2023-01-17T11:40:47.175Z,68.18
2023-01-17T11:43:33.885Z,68.22
2023-01-17T11:46:24.306Z,68.57
2023-01-17T11:49:07.874Z,69.17
2023-01-17T11:51:49.036Z,69.48
2023-01-17T11:54:32.892Z,69.26
2023-01-17T11:57:33.877Z,69.28
2023-01-17T12:00:23.542Z,69.31
2023-01-17T12:03:26.914Z,69.28
2023-01-17T12:06:56.830Z,69.37
2023-01-17T12:10:26.879Z,68.86
2023-01-17T12:13:25.953Z,69.58
2023-01-17T12:16:36.963Z,69.74
2023-01-17T12:19:32.570Z,69.90
2023-01-17T12:22:33.947Z,70.52
2023-01-17T12:25:33.093Z,70.53
2023-01-17T12:29:14.873Z,70.16
2023-01-17T12:32:26.882Z,69.23
2023-01-17T12:35:12.869Z,68.20
2023-01-17T12:38:23.744Z,68.13
2023-01-17T12:41:32.877Z,66.82
2023-01-17T12:44:08.006Z,64.53
2023-01-17T12:47:10.880Z,64.92
2023-01-17T12:50:17.867Z,65.39
2023-01-17T12:53:12.891Z,65.76
2023-01-17T12:56:08.869Z,66.90
2023-01-17T12:59:05.924Z,66.27
2023-01-17T13:01:43.392Z,64.99
2023-01-17T13:04:57.453Z,65.58
2023-01-17T13:07:39.081Z,65.53
2023-01-17T13:10:47.899Z,66.13
2023-01-17T13:13:32.208Z,66.35
2023-01-17T13:16:21.948Z,64.83
2023-01-17T13:18:59.010Z,63.76
2023-01-17T13:21:46.903Z,61.95
2023-01-17T13:24:33.016Z,61.14
2023-01-17T13:27:18.887Z,60.44
2023-01-17T13:30:33.138Z,59.95
2023-01-17T13:33:40.880Z,59.68
2023-01-17T13:36:43.889Z,58.90
2023-01-17T13:39:56.953Z,58.78
2023-01-17T13:43:16.893Z,57.23
2023-01-17T13:45:56.230Z,55.89
2023-01-17T13:48:47.854Z,55.49
2023-01-17T13:52:16.899Z,55.24
2023-01-17T13:55:10.855Z,54.61
2023-01-17T13:57:46.931Z,54.60
2023-01-17T14:00:34.888Z,55.54
2023-01-17T14:03:16.944Z,55.99
2023-01-17T14:06:04.862Z,54.30
2023-01-17T14:08:52.039Z,54.00
2023-01-17T14:11:32.861Z,54.65
2023-01-17T14:14:54.856Z,55.02
2023-01-17T14:17:45.414Z,55.74
2023-01-17T14:20:38.847Z,56.81
2023-01-17T14:23:31.967Z,57.90
2023-01-17T14:26:34.387Z,59.25
2023-01-17T14:29:56.054Z,60.63
2023-01-17T14:32:50.859Z,61.99
2023-01-17T14:35:31.953Z,63.06
2023-01-17T14:38:40.855Z,63.60
2023-01-17T14:41:38.873Z,64.40
2023-01-17T14:44:26.989Z,64.76
2023-01-17T14:47:08.867Z,65.15
2023-01-17T14:50:23.951Z,65.36
2023-01-17T14:53:17.867Z,65.47
2023-01-17T14:56:03.877Z,65.88
2023-01-17T14:58:58.908Z,66.53
2023-01-17T15:02:01.783Z,67.21
2023-01-17T15:04:41.343Z,67.84
2023-01-17T15:07:29.884Z,68.17
2023-01-17T15:10:04.986Z,68.22
2023-01-17T15:12:55.836Z,68.41
2023-01-17T15:15:40.179Z,68.71
2023-01-17T15:18:32.851Z,68.74
2023-01-17T15:21:22.866Z,68.84
2023-01-17T15:24:07.857Z,69.14
2023-01-17T15:26:49.985Z,69.23
2023-01-17T15:29:32.870Z,69.14
2023-01-17T15:32:23.872Z,69.18
2023-01-17T15:35:18.846Z,69.45
2023-01-17T15:38:07.843Z,69.50
2023-01-17T15:40:49.038Z,69.75
2023-01-17T15:43:42.852Z,69.82
2023-01-17T15:46:47.163Z,69.99
2023-01-17T15:49:35.875Z,70.63
2023-01-17T15:52:19.080Z,71.13
2023-01-17T15:55:22.244Z,71.92
2023-01-17T15:58:04.856Z,72.43
2023-01-17T16:00:54.138Z,73.09
2023-01-17T16:03:44.843Z,73.76
2023-01-17T16:06:52.603Z,74.20
2023-01-17T16:09:39.048Z,74.62
2023-01-17T16:12:27.061Z,74.92
2023-01-17T16:15:12.239Z,75.12
2023-01-17T16:17:56.882Z,75.37
2023-01-17T16:20:43.535Z,75.73
2023-01-17T16:23:24.845Z,75.77
2023-01-17T16:26:06.210Z,75.77
2023-01-17T16:28:50.842Z,75.78
2023-01-17T16:31:32.695Z,75.71
2023-01-17T16:34:19.999Z,75.78
2023-01-17T16:37:16.829Z,75.79
2023-01-17T16:40:07.590Z,75.84
2023-01-17T16:42:42.672Z,75.96
2023-01-17T16:45:31.868Z,76.15
2023-01-17T16:48:18.973Z,76.28
2023-01-17T16:51:12.862Z,76.44
2023-01-17T16:53:50.916Z,76.41
2023-01-17T16:56:40.836Z,76.59
2023-01-17T16:59:16.046Z,76.55
2023-01-17T17:02:15.355Z,76.56
2023-01-17T17:04:58.993Z,76.63
2023-01-17T17:07:51.985Z,76.83
2023-01-17T17:10:38.008Z,76.78
2023-01-17T17:13:34.904Z,76.73
2023-01-17T17:17:01.381Z,76.67
2023-01-17T17:19:49.856Z,76.52
2023-01-17T17:22:30.977Z,76.68
2023-01-17T17:25:14.858Z,76.59
2023-01-17T17:28:03.324Z,76.58
2023-01-17T17:30:57.878Z,76.46
2023-01-17T17:33:42.989Z,76.41
2023-01-17T17:37:03.950Z,76.21
2023-01-17T17:39:49.167Z,76.18
2023-01-17T17:42:31.254Z,76.20
2023-01-17T17:45:12.996Z,76.30
2023-01-17T17:47:54.899Z,76.36
2023-01-17T17:50:36.285Z,76.16
2023-01-17T17:53:18.392Z,76.16
2023-01-17T17:56:09.823Z,76.06
2023-01-17T17:58:48.709Z,76.27
2023-01-17T18:02:04.538Z,76.25
2023-01-17T18:04:54.973Z,76.04
2023-01-17T18:07:39.976Z,75.98
2023-01-17T18:10:24.887Z,75.96
2023-01-17T18:13:16.976Z,76.08
2023-01-17T18:16:03.649Z,76.18
2023-01-17T18:19:12.023Z,76.16
2023-01-17T18:21:57.810Z,76.34
2023-01-17T18:24:40.213Z,76.40
2023-01-17T18:27:21.848Z,76.33
2023-01-17T18:30:14.606Z,76.44
2023-01-17T18:32:56.935Z,76.46
2023-01-17T18:35:38.973Z,76.38
2023-01-17T18:38:19.843Z,76.36
2023-01-17T18:41:34.833Z,76.29
2023-01-17T18:44:38.787Z,76.29
2023-01-17T18:47:29.837Z,76.25
2023-01-17T18:50:24.831Z,76.19
2023-01-17T18:53:12.820Z,76.22
2023-01-17T18:56:03.163Z,76.29
2023-01-17T18:58:47.986Z,76.22
2023-01-17T19:01:54.128Z,76.20
2023-01-17T19:04:35.477Z,76.19
2023-01-17T19:07:41.158Z,76.15
2023-01-17T19:10:20.571Z,76.18
2023-01-17T19:13:11.752Z,76.12
2023-01-17T19:15:48.423Z,75.92
2023-01-17T19:18:36.820Z,75.89
2023-01-17T19:21:13.479Z,75.92
2023-01-17T19:24:04.344Z,75.68
2023-01-17T19:26:46.940Z,75.71
2023-01-17T19:29:30.251Z,75.66
2023-01-17T19:32:13.983Z,75.57
2023-01-17T19:35:00.807Z,75.50
2023-01-17T19:37:50.942Z,75.59
2023-01-17T19:40:42.002Z,75.50
2023-01-17T19:43:36.820Z,75.52
2023-01-17T19:46:28.365Z,75.43
2023-01-17T19:49:05.958Z,75.56
2023-01-17T19:51:58.812Z,75.53
2023-01-17T19:54:42.699Z,75.56
2023-01-17T19:57:41.843Z,75.73
2023-01-17T20:00:30.233Z,75.88
2023-01-17T20:03:25.825Z,75.99
2023-01-17T20:06:15.339Z,76.10
2023-01-17T20:08:51.265Z,76.21
2023-01-17T20:11:38.953Z,76.32
2023-01-17T20:14:14.348Z,76.20
2023-01-17T20:17:01.923Z,76.12
2023-01-17T20:19:42.970Z,76.11
2023-01-17T20:22:24.104Z,76.14
2023-01-17T20:25:12.890Z,76.29
2023-01-17T20:27:47.227Z,76.28
2023-01-17T20:30:36.804Z,76.30
2023-01-17T20:34:39.867Z,76.33
2023-01-17T20:42:16.001Z,76.46
2023-01-17T20:45:10.869Z,76.62
2023-01-17T20:48:05.465Z,76.82
2023-01-17T20:50:51.370Z,76.90
2023-01-17T20:53:33.158Z,76.96
2023-01-17T20:56:17.330Z,76.89
2023-01-17T20:59:03.904Z,76.80
2023-01-17T21:01:46.090Z,76.86
2023-01-17T21:04:58.018Z,76.95
2023-01-17T21:07:49.817Z,77.02
2023-01-17T21:11:00.363Z,76.97
2023-01-17T21:14:46.848Z,76.94
2023-01-17T21:21:42.994Z,77.01
2023-01-17T21:37:56.517Z,76.77
2023-01-17T21:40:37.801Z,76.77
2023-01-17T21:44:28.988Z,76.80
2023-01-17T21:47:24.196Z,76.92
2023-01-17T21:54:15.419Z,76.74
2023-01-17T21:57:20.799Z,76.88
2023-01-17T22:00:02.804Z,77.01
2023-01-17T22:02:43.783Z,77.09
2023-01-17T22:05:25.056Z,77.05
2023-01-17T22:08:19.004Z,77.11
2023-01-17T22:11:01.111Z,77.19
2023-01-17T22:13:43.995Z,77.33
2023-01-17T22:16:37.816Z,77.39
2023-01-17T22:19:18.805Z,77.52
2023-01-17T22:22:01.317Z,77.60
2023-01-17T22:24:44.430Z,77.53
2023-01-17T22:27:34.386Z,77.55
2023-01-17T22:30:29.868Z,77.56
2023-01-17T22:33:19.740Z,77.48
2023-01-17T22:36:02.193Z,77.48
2023-01-17T22:38:50.333Z,77.50
2023-01-17T22:41:33.863Z,77.58
2023-01-17T22:44:21.981Z,77.92
2023-01-17T22:46:57.098Z,78.08
2023-01-17T22:49:44.973Z,78.10
2023-01-17T22:52:27.930Z,78.37
2023-01-17T22:55:23.773Z,78.23
2023-01-17T22:58:11.895Z,78.31
2023-01-17T23:00:47.628Z,78.44
2023-01-17T23:03:35.822Z,78.29
2023-01-17T23:06:19.915Z,78.25
2023-01-17T23:09:11.790Z,78.29
2023-01-17T23:11:58.431Z,78.45
2023-01-17T23:15:13.996Z,78.49
2023-01-17T23:18:20.775Z,78.64
2023-01-17T23:20:55.164Z,78.81
2023-01-17T23:23:45.830Z,78.98
2023-01-17T23:26:21.839Z,79.02
2023-01-17T23:29:09.780Z,79.20
2023-01-17T23:31:44.169Z,79.22
2023-01-17T23:34:31.754Z,79.32
2023-01-17T23:37:12.776Z,79.43
2023-01-17T23:39:53.891Z,79.63
2023-01-17T23:42:52.765Z,79.68
2023-01-17T23:45:33.889Z,79.71
2023-01-17T23:48:17.778Z,79.86
2023-01-17T23:51:17.756Z,79.89
2023-01-17T23:53:57.573Z,79.90
2023-01-17T23:57:06.581Z,79.81
2023-01-17T23:59:45.498Z,79.80
